Time;durP1;ratioP1;P1;durP2;ratioP2;P2;SDS_P1;SDS_P2;PMS_P1;PMS_P2;Temp;Humidity;BMP_temperature;BMP_pressure;BME280_temperature;BME280_humidity;BME280_pressure;Samples;Min_cycle;Max_cycle;Signal;HPM_P1;HPM_P2
2023/02/27 00:01:49;;;;;;;4.63;3.13;;;0.00;86.90;;;;;;5052484;28;20222;-68
2023/02/27 00:04:16;;;;;;;4.50;2.90;;;0.00;86.50;;;;;;5052456;28;20214;-68
2023/02/27 00:06:43;;;;;;;4.38;3.30;;;0.00;86.20;;;;;;5065234;28;20282;-68
2023/02/27 00:09:10;;;;;;;4.95;3.30;;;0.00;86.00;;;;;;5052413;28;20194;-69
2023/02/27 00:11:38;;;;;;;5.15;3.08;;;0.10;85.00;;;;;;5068601;28;20243;-68
2023/02/27 00:14:05;;;;;;;5.45;3.80;;;0.10;84.30;;;;;;5072502;28;20190;-71
2023/02/27 00:16:33;;;;;;;4.50;3.22;;;0.10;83.90;;;;;;5058940;28;20227;-68
2023/02/27 00:19:03;;;;;;;4.35;3.45;;;0.20;83.40;;;;;;5072276;28;20251;-68
2023/02/27 00:21:31;;;;;;;4.03;2.78;;;0.20;82.80;;;;;;5057015;28;20304;-68
2023/02/27 00:23:58;;;;;;;7.15;3.30;;;0.10;83.00;;;;;;5052324;28;20263;-68
2023/02/27 00:26:25;;;;;;;4.00;2.95;;;0.20;82.90;;;;;;5063304;28;20194;-69
2023/02/27 00:28:52;;;;;;;5.13;3.70;;;0.10;82.80;;;;;;5052230;28;20199;-68
2023/02/27 00:31:19;;;;;;;5.10;3.60;;;0.10;82.10;;;;;;5063738;28;20650;-68
2023/02/27 00:33:47;;;;;;;3.92;3.20;;;0.10;82.50;;;;;;5072038;28;20197;-69
2023/02/27 00:36:15;;;;;;;6.55;3.17;;;0.10;82.30;;;;;;5060658;28;20649;-69
2023/02/27 00:38:42;;;;;;;4.15;3.35;;;0.10;82.50;;;;;;5068831;28;20278;-69
2023/02/27 00:41:09;;;;;;;4.20;3.03;;;0.10;82.30;;;;;;5052269;28;20548;-69
2023/02/27 00:43:36;;;;;;;4.50;3.20;;;0.20;82.00;;;;;;5051867;28;20556;-68
2023/02/27 00:46:04;;;;;;;4.25;2.97;;;0.20;81.20;;;;;;5072322;28;20196;-68
2023/02/27 00:48:31;;;;;;;6.15;3.40;;;0.20;81.40;;;;;;5053527;28;20206;-68
2023/02/27 00:50:58;;;;;;;7.15;3.88;;;0.20;81.50;;;;;;5051821;28;20642;-68
2023/02/27 00:53:27;;;;;;;4.13;2.92;;;0.10;81.80;;;;;;5068006;28;20186;-69
2023/02/27 00:55:59;;;;;;;5.30;3.35;;;0.10;82.10;;;;;;5071626;28;20285;-68
2023/02/27 00:58:26;;;;;;;4.82;3.45;;;0.10;82.50;;;;;;5070054;28;20191;-68
2023/02/27 01:00:53;;;;;;;4.28;2.90;;;0.20;82.40;;;;;;5071808;28;20599;-68
2023/02/27 01:03:20;;;;;;;3.88;2.58;;;0.20;82.40;;;;;;5058329;28;20186;-69
2023/02/27 01:05:47;;;;;;;5.57;3.70;;;0.20;82.00;;;;;;5055917;28;20228;-68
2023/02/27 01:08:15;;;;;;;4.05;3.00;;;0.30;81.80;;;;;;5071055;28;20248;-69
2023/02/27 01:10:44;;;;;;;4.78;3.05;;;0.30;81.10;;;;;;5076013;28;20190;-69
2023/02/27 01:13:11;;;;;;;4.15;3.05;;;0.30;80.30;;;;;;5061093;28;20187;-69
2023/02/27 01:15:38;;;;;;;5.32;3.47;;;0.30;80.30;;;;;;5055633;28;20299;-68
2023/02/27 01:18:05;;;;;;;5.95;3.70;;;0.20;80.30;;;;;;5055909;28;20192;-68
2023/02/27 01:20:34;;;;;;;4.95;3.42;;;0.30;80.10;;;;;;5055673;28;20289;-68
2023/02/27 01:23:01;;;;;;;3.60;2.88;;;0.30;79.70;;;;;;5073084;28;20190;-68
2023/02/27 01:25:28;;;;;;;4.07;2.58;;;0.30;79.40;;;;;;5075521;28;20684;-68
2023/02/27 01:27:57;;;;;;;5.05;3.30;;;0.30;79.70;;;;;;5058039;28;20245;-68
2023/02/27 01:30:24;;;;;;;3.63;2.88;;;0.30;80.10;;;;;;5055520;28;20200;-69
2023/02/27 01:32:51;;;;;;;5.05;3.28;;;0.20;79.70;;;;;;5070755;28;20535;-68
2023/02/27 01:35:18;;;;;;;5.25;4.00;;;0.30;79.80;;;;;;5074968;28;20193;-69
2023/02/27 01:37:46;;;;;;;4.75;3.65;;;0.20;79.80;;;;;;5059283;28;20188;-68
2023/02/27 01:40:14;;;;;;;4.85;3.35;;;0.20;79.60;;;;;;5055370;28;20198;-70
2023/02/27 01:42:42;;;;;;;7.45;4.00;;;0.30;79.40;;;;;;5069265;28;20240;-68
2023/02/27 01:45:28;;;;;;;5.32;3.53;;;0.30;79.40;;;;;;5075339;28;20312;-68
2023/02/27 01:48:02;;;;;;;4.50;3.70;;;0.20;79.60;;;;;;5058745;28;20290;-69
2023/02/27 01:50:31;;;;;;;5.85;4.00;;;0.20;80.00;;;;;;5073696;28;20190;-68
2023/02/27 01:53:01;;;;;;;5.82;3.80;;;0.20;80.50;;;;;;5059085;28;20192;-68
2023/02/27 01:55:31;;;;;;;6.72;3.80;;;0.20;80.50;;;;;;5054969;28;20667;-68
2023/02/27 01:57:58;;;;;;;4.43;3.25;;;0.30;80.50;;;;;;5069422;28;20190;-69
2023/02/27 02:00:27;;;;;;;5.80;3.55;;;0.30;80.00;;;;;;5059709;28;20183;-68
2023/02/27 02:03:04;;;;;;;7.88;3.90;;;0.30;80.30;;;;;;5074428;28;20236;-69
2023/02/27 02:05:32;;;;;;;5.35;3.67;;;0.30;80.00;;;;;;5070312;28;20226;-70
2023/02/27 02:08:00;;;;;;;6.38;3.55;;;0.40;79.60;;;;;;5072302;28;20190;-69
2023/02/27 02:10:32;;;;;;;4.50;3.45;;;0.40;78.60;;;;;;5056550;28;20236;-69
2023/02/27 02:13:00;;;;;;;3.88;2.60;;;0.40;77.60;;;;;;5054205;28;20236;-69
2023/02/27 02:15:35;;;;;;;5.55;3.50;;;0.40;77.70;;;;;;5071653;28;20610;-69
2023/02/27 02:18:13;;;;;;;4.25;3.30;;;0.30;78.10;;;;;;5074535;28;20550;-68
2023/02/27 02:21:08;;;;;;;5.72;3.78;;;0.30;78.30;;;;;;5054524;28;20196;-70
2023/02/27 02:24:07;;;;;;;3.30;2.70;;;0.30;77.60;;;;;;5054280;28;20245;-69
2023/02/27 02:26:47;;;;;;;5.10;2.80;;;0.30;77.60;;;;;;5054602;28;20197;-68
2023/02/27 02:30:02;;;;;;;5.25;3.90;;;0.20;77.70;;;;;;5061320;28;20186;-69
2023/02/27 02:33:08;;;;;;;5.70;2.90;;;0.20;78.10;;;;;;5054023;28;20237;-69
2023/02/27 02:36:04;;;;;;;4.25;2.83;;;0.30;78.30;;;;;;5060716;28;20607;-69
2023/02/27 02:39:28;;;;;;;5.90;3.28;;;0.20;78.50;;;;;;5020898;28;20191;-69
2023/02/27 02:42:13;;;;;;;4.03;3.05;;;0.30;78.50;;;;;;5039669;28;20232;-69
2023/02/27 02:44:51;;;;;;;4.70;3.30;;;0.30;78.30;;;;;;5051329;28;20222;-69
2023/02/27 02:47:30;;;;;;;6.32;3.10;;;0.30;77.60;;;;;;5057917;28;20308;-68
2023/02/27 02:50:03;;;;;;;4.10;3.03;;;0.30;77.60;;;;;;5072468;28;20737;-68
2023/02/27 02:52:36;;;;;;;6.20;4.45;;;0.30;77.90;;;;;;5054053;28;20196;-68
2023/02/27 02:55:10;;;;;;;5.32;3.85;;;0.20;77.90;;;;;;5061310;28;20532;-68
2023/02/27 02:57:43;;;;;;;7.57;4.18;;;0.30;78.40;;;;;;5073776;28;20242;-68
2023/02/27 03:00:15;;;;;;;5.88;3.50;;;0.30;78.00;;;;;;5071963;28;20213;-68
2023/02/27 03:02:48;;;;;;;6.05;3.42;;;0.30;78.00;;;;;;5073547;28;20223;-68
2023/02/27 03:05:20;;;;;;;4.40;2.90;;;0.30;77.60;;;;;;5064895;28;20218;-69
2023/02/27 03:07:53;;;;;;;4.72;3.88;;;0.30;77.50;;;;;;5053547;28;20202;-69
2023/02/27 03:10:26;;;;;;;5.07;3.65;;;0.30;77.40;;;;;;5061607;28;20238;-68
2023/02/27 03:13:00;;;;;;;5.20;4.03;;;0.30;77.50;;;;;;5073681;28;20191;-69
2023/02/27 03:15:31;;;;;;;5.78;4.82;;;0.30;77.70;;;;;;5063869;28;20301;-68
2023/02/27 03:18:05;;;;;;;5.00;3.33;;;0.30;76.80;;;;;;5053441;28;20303;-69
2023/02/27 03:20:38;;;;;;;6.38;4.50;;;0.20;77.30;;;;;;5062931;28;20626;-69
2023/02/27 03:23:12;;;;;;;4.57;3.40;;;0.20;77.50;;;;;;5073179;28;20251;-68
2023/02/27 03:25:44;;;;;;;5.82;3.63;;;0.30;76.90;;;;;;5061725;28;20719;-69
2023/02/27 03:28:18;;;;;;;5.40;3.65;;;0.30;76.40;;;;;;5053282;28;20191;-68
2023/02/27 03:30:52;;;;;;;5.35;4.10;;;0.30;76.80;;;;;;5064201;28;20672;-68
2023/02/27 03:33:24;;;;;;;8.35;3.80;;;0.20;77.10;;;;;;5073009;28;20178;-68
2023/02/27 03:35:57;;;;;;;5.85;3.95;;;0.20;77.60;;;;;;5061079;28;20228;-68
2023/02/27 03:38:33;;;;;;;6.35;3.38;;;0.20;77.70;;;;;;5053212;28;20667;-68
2023/02/27 03:41:08;;;;;;;4.97;4.00;;;0.20;78.00;;;;;;5065654;28;20182;-68
2023/02/27 03:43:44;;;;;;;6.45;3.72;;;0.30;77.30;;;;;;5072837;28;20341;-69
2023/02/27 03:46:14;;;;;;;5.75;3.22;;;0.30;77.60;;;;;;5061346;28;20620;-69
2023/02/27 03:48:43;;;;;;;5.82;3.95;;;0.30;77.50;;;;;;5053186;28;20209;-68
2023/02/27 03:51:11;;;;;;;4.75;3.80;;;0.30;77.50;;;;;;5052661;28;20281;-73
2023/02/27 03:53:43;;;;;;;5.38;3.88;;;0.30;77.60;;;;;;5052746;28;20196;-68
2023/02/27 03:56:14;;;;;;;5.00;3.65;;;0.30;77.90;;;;;;5052850;28;20195;-70
2023/02/27 03:58:43;;;;;;;6.00;4.78;;;0.20;77.60;;;;;;5063190;28;20186;-69
2023/02/27 04:01:11;;;;;;;5.55;3.85;;;0.30;77.60;;;;;;5072588;28;20191;-68
2023/02/27 04:03:46;;;;;;;6.95;4.30;;;0.30;76.40;;;;;;5060429;28;20193;-68
2023/02/27 04:09:04;;;;;;;5.43;3.92;;;0.30;75.60;;;;;;5061391;28;20228;-69
2023/02/27 04:11:48;;;;;;;7.47;4.53;;;0.10;76.50;;;;;;5052260;28;20217;-68
2023/02/27 04:14:36;;;;;;;5.45;3.78;;;0.10;76.70;;;;;;5067834;28;20194;-68
2023/02/27 04:17:18;;;;;;;6.50;3.50;;;0.00;77.30;;;;;;5072294;28;20213;-68
2023/02/27 04:20:12;;;;;;;5.63;3.88;;;-0.10;78.00;;;;;;5062117;28;20190;-68
2023/02/27 04:22:44;;;;;;;5.20;4.30;;;-0.10;77.90;;;;;;5070228;28;20247;-69
2023/02/27 04:25:32;;;;;;;5.63;4.32;;;-0.10;78.30;;;;;;5057017;28;20614;-69
2023/02/27 04:28:09;;;;;;;6.32;4.38;;;-0.20;78.70;;;;;;5068304;28;20329;-68
2023/02/27 04:30:45;;;;;;;4.85;3.85;;;-0.20;78.90;;;;;;5068534;28;20187;-69
2023/02/27 04:33:17;;;;;;;5.00;3.80;;;-0.30;79.00;;;;;;5066986;28;20202;-68
2023/02/27 04:35:50;;;;;;;6.20;4.43;;;-0.30;79.20;;;;;;5051977;28;20238;-68
2023/02/27 04:38:23;;;;;;;6.03;3.60;;;-0.20;78.10;;;;;;5052597;28;20244;-69
2023/02/27 04:40:56;;;;;;;5.53;4.55;;;-0.10;78.00;;;;;;5052115;28;20657;-68
2023/02/27 04:43:26;;;;;;;7.00;3.65;;;-0.10;77.90;;;;;;5057008;28;20239;-68
2023/02/27 04:45:58;;;;;;;7.00;4.45;;;-0.10;77.90;;;;;;5071674;28;20217;-68
2023/02/27 04:48:31;;;;;;;4.80;3.60;;;-0.10;77.70;;;;;;5066290;28;20182;-68
2023/02/27 04:51:03;;;;;;;6.45;4.53;;;-0.10;77.10;;;;;;5051670;28;20222;-69
2023/02/27 04:53:35;;;;;;;6.90;4.78;;;-0.10;77.40;;;;;;5056252;28;20540;-68
2023/02/27 04:56:08;;;;;;;5.40;3.60;;;-0.10;78.40;;;;;;5071906;28;20201;-68
2023/02/27 04:58:38;;;;;;;7.63;3.83;;;-0.10;77.90;;;;;;5060788;28;20190;-68
2023/02/27 05:01:11;;;;;;;5.60;3.75;;;-0.10;78.10;;;;;;5052279;28;20200;-68
2023/02/27 05:03:42;;;;;;;9.23;4.50;;;-0.10;77.30;;;;;;5051827;28;20205;-69
2023/02/27 05:06:11;;;;;;;4.85;3.95;;;-0.10;77.80;;;;;;5060691;28;20248;-68
2023/02/27 05:08:42;;;;;;;4.88;4.10;;;-0.10;77.70;;;;;;5061931;28;20279;-68
2023/02/27 05:11:15;;;;;;;6.38;3.75;;;-0.10;77.70;;;;;;5052006;28;20600;-69
2023/02/27 05:13:45;;;;;;;5.63;4.78;;;-0.20;78.50;;;;;;5060230;28;20194;-68
2023/02/27 05:16:22;;;;;;;6.05;3.95;;;-0.20;78.90;;;;;;5071724;28;20196;-68
2023/02/27 05:18:50;;;;;;;6.68;4.45;;;-0.20;79.00;;;;;;5069596;28;20185;-69
2023/02/27 05:21:24;;;;;;;5.38;4.15;;;-0.10;79.00;;;;;;5071381;28;20229;-69
2023/02/27 05:24:03;;;;;;;6.45;3.90;;;-0.10;78.90;;;;;;5059884;28;20222;-68
2023/02/27 05:26:51;;;;;;;4.00;3.35;;;-0.10;78.50;;;;;;5051521;28;20610;-68
2023/02/27 05:29:28;;;;;;;4.85;3.50;;;-0.20;78.00;;;;;;5065802;28;20602;-69
2023/02/27 05:32:05;;;;;;;4.35;3.58;;;-0.20;78.00;;;;;;5071344;28;20189;-69
2023/02/27 05:34:36;;;;;;;5.95;4.20;;;-0.20;78.20;;;;;;5054054;28;20205;-69
2023/02/27 05:37:07;;;;;;;7.53;3.78;;;-0.20;77.80;;;;;;5051503;28;20626;-68
2023/02/27 05:39:38;;;;;;;9.55;4.57;;;-0.20;77.50;;;;;;5065451;28;20239;-68
2023/02/27 05:42:08;;;;;;;5.55;3.83;;;-0.20;77.40;;;;;;5065446;28;20418;-68
2023/02/27 05:44:41;;;;;;;5.20;3.97;;;-0.20;77.70;;;;;;5051238;28;20198;-68
2023/02/27 05:47:13;;;;;;;5.68;3.95;;;-0.20;77.50;;;;;;5055615;28;20215;-68
2023/02/27 05:49:45;;;;;;;5.93;5.13;;;-0.20;78.00;;;;;;5074659;28;20248;-69
2023/02/27 05:52:16;;;;;;;5.70;3.50;;;-0.30;78.20;;;;;;5068937;28;20197;-69
2023/02/27 05:54:49;;;;;;;4.78;3.83;;;-0.20;78.30;;;;;;5054851;28;20229;-69
2023/02/27 05:57:22;;;;;;;6.05;4.35;;;-0.20;77.80;;;;;;5059433;28;20667;-69
2023/02/27 05:59:55;;;;;;;7.95;4.75;;;-0.10;77.70;;;;;;5074775;28;20190;-68
2023/02/27 06:02:24;;;;;;;5.40;4.03;;;-0.20;77.60;;;;;;5064173;28;20306;-71
2023/02/27 06:04:51;;;;;;;4.70;3.85;;;-0.20;77.70;;;;;;5054943;28;20236;-68
2023/02/27 06:07:19;;;;;;;5.75;3.88;;;-0.10;77.40;;;;;;5062863;28;20210;-67
2023/02/27 06:09:48;;;;;;;9.55;5.20;;;-0.20;78.10;;;;;;5074753;28;20239;-69
2023/02/27 06:12:15;;;;;;;6.40;4.28;;;-0.20;77.70;;;;;;5065198;28;20267;-69
2023/02/27 06:14:42;;;;;;;5.30;4.20;;;-0.20;77.60;;;;;;5055952;28;20282;-68
2023/02/27 06:17:10;;;;;;;6.95;4.97;;;-0.20;78.10;;;;;;5061846;28;20186;-69
2023/02/27 06:19:38;;;;;;;6.45;4.22;;;-0.20;78.00;;;;;;5071830;28;20189;-69
2023/02/27 06:22:05;;;;;;;5.88;4.60;;;-0.10;78.10;;;;;;5067847;28;20233;-69
2023/02/27 06:24:32;;;;;;;6.20;4.72;;;-0.10;77.80;;;;;;5052189;28;20202;-69
2023/02/27 06:26:59;;;;;;;5.50;4.13;;;-0.20;78.30;;;;;;5053145;28;20214;-68
2023/02/27 06:29:26;;;;;;;5.80;4.70;;;-0.20;78.60;;;;;;5052666;28;20222;-70
2023/02/27 06:31:54;;;;;;;5.80;4.00;;;-0.10;78.60;;;;;;5053519;28;20186;-68
2023/02/27 06:34:21;;;;;;;6.65;4.75;;;0.00;78.20;;;;;;5052706;28;20244;-69
2023/02/27 06:36:49;;;;;;;8.20;4.70;;;0.00;78.20;;;;;;5052590;28;20186;-68
2023/02/27 06:39:17;;;;;;;6.18;4.78;;;0.10;77.70;;;;;;5052334;28;20202;-70
2023/02/27 06:41:44;;;;;;;6.70;4.70;;;0.00;77.60;;;;;;5048796;28;20191;-66
2023/02/27 06:44:11;;;;;;;6.97;4.20;;;0.00;77.80;;;;;;5052507;28;20194;-69
2023/02/27 06:46:38;;;;;;;6.30;4.40;;;0.10;77.70;;;;;;5055986;28;20246;-69
2023/02/27 06:49:05;;;;;;;10.05;4.88;;;0.10;77.40;;;;;;5055329;28;20220;-69
2023/02/27 06:51:32;;;;;;;5.13;3.90;;;0.20;77.30;;;;;;5052346;28;20273;-69
2023/02/27 06:54:00;;;;;;;9.23;5.10;;;0.30;76.60;;;;;;5043564;28;20209;-69
2023/02/27 06:56:28;;;;;;;8.55;5.65;;;0.20;76.70;;;;;;5050663;28;20315;-69
2023/02/27 06:58:55;;;;;;;5.78;4.03;;;0.20;76.70;;;;;;5049169;28;20214;-69
2023/02/27 07:01:22;;;;;;;7.30;4.93;;;0.30;77.10;;;;;;5050709;28;20278;-69
2023/02/27 07:03:49;;;;;;;7.82;5.18;;;0.30;76.60;;;;;;5050957;28;20571;-69
2023/02/27 07:06:16;;;;;;;7.13;5.03;;;0.40;76.60;;;;;;5051009;28;20281;-69
2023/02/27 07:08:43;;;;;;;9.50;5.43;;;0.40;76.20;;;;;;5050968;28;20288;-69
2023/02/27 07:11:11;;;;;;;6.07;4.78;;;0.50;75.90;;;;;;5050257;28;20203;-69
2023/02/27 07:13:38;;;;;;;7.75;4.63;;;0.50;75.50;;;;;;5052970;28;20223;-69
2023/02/27 07:16:06;;;;;;;6.00;4.57;;;0.60;74.90;;;;;;5051893;28;20280;-68
2023/02/27 07:18:33;;;;;;;8.38;5.13;;;0.70;74.10;;;;;;5050336;28;20200;-69
2023/02/27 07:21:00;;;;;;;7.50;4.70;;;0.70;73.90;;;;;;5050622;28;20222;-68
2023/02/27 07:23:27;;;;;;;7.00;5.30;;;0.70;74.10;;;;;;5051016;28;20249;-70
2023/02/27 07:25:54;;;;;;;7.32;4.78;;;0.80;74.30;;;;;;5052215;28;20303;-68
2023/02/27 07:28:23;;;;;;;6.30;4.75;;;1.00;74.50;;;;;;5049132;28;20253;-70
2023/02/27 07:30:53;;;;;;;5.65;3.85;;;1.00;73.30;;;;;;5054981;28;20278;-68
2023/02/27 07:33:19;;;;;;;5.18;4.30;;;1.00;71.90;;;;;;5052362;28;20290;-68
2023/02/27 07:35:46;;;;;;;6.60;4.53;;;1.00;72.00;;;;;;5058835;28;20279;-68
2023/02/27 07:38:13;;;;;;;5.35;4.00;;;1.00;71.80;;;;;;5056284;28;20204;-69
2023/02/27 07:40:40;;;;;;;6.95;4.80;;;1.00;72.20;;;;;;5056746;28;20282;-69
2023/02/27 07:43:08;;;;;;;6.55;4.18;;;1.10;72.40;;;;;;5058518;28;20206;-70
2023/02/27 07:45:36;;;;;;;7.15;4.93;;;1.10;71.90;;;;;;5060192;28;20261;-68
2023/02/27 07:48:03;;;;;;;7.07;4.82;;;1.10;70.50;;;;;;5054225;28;20228;-68
2023/02/27 07:50:30;;;;;;;4.53;3.80;;;1.00;70.60;;;;;;5058754;28;20293;-68
2023/02/27 07:52:57;;;;;;;8.70;4.53;;;1.00;70.90;;;;;;5057708;28;20200;-68
2023/02/27 07:55:24;;;;;;;10.65;5.20;;;1.00;71.20;;;;;;5058396;28;20224;-70
2023/02/27 07:58:05;;;;;;;5.78;4.20;;;1.10;70.70;;;;;;5055240;28;20278;-72
2023/02/27 08:00:32;;;;;;;8.45;4.82;;;1.00;71.20;;;;;;5056610;28;20223;-68
2023/02/27 08:03:01;;;;;;;8.60;5.00;;;1.10;71.40;;;;;;5057906;28;20226;-66
2023/02/27 08:05:28;;;;;;;5.78;4.15;;;1.10;71.10;;;;;;5056725;28;20220;-69
2023/02/27 08:07:54;;;;;;;5.80;4.20;;;1.20;71.00;;;;;;5055246;28;20305;-68
2023/02/27 08:10:21;;;;;;;6.95;4.63;;;1.20;71.20;;;;;;5059611;28;20226;-71
2023/02/27 08:12:48;;;;;;;6.05;4.68;;;1.30;70.60;;;;;;5057223;28;20200;-68
2023/02/27 08:15:16;;;;;;;8.43;4.70;;;1.30;70.20;;;;;;5061455;28;20311;-69
2023/02/27 08:17:44;;;;;;;6.82;4.57;;;1.40;69.80;;;;;;5059604;28;20202;-68
2023/02/27 08:20:14;;;;;;;8.27;4.50;;;1.40;69.40;;;;;;5059563;28;20223;-69
2023/02/27 08:22:41;;;;;;;10.35;4.63;;;1.30;69.40;;;;;;5059506;28;20193;-69
2023/02/27 08:25:11;;;;;;;8.90;5.20;;;1.40;69.30;;;;;;5064975;28;20601;-70
2023/02/27 08:27:38;;;;;;;5.88;4.25;;;1.40;69.10;;;;;;5057011;28;20682;-69
2023/02/27 08:30:08;;;;;;;6.38;4.55;;;1.40;69.40;;;;;;5064828;28;20248;-68
2023/02/27 08:32:35;;;;;;;6.07;4.35;;;1.40;69.60;;;;;;5067798;28;20201;-69
2023/02/27 08:35:02;;;;;;;5.95;4.30;;;1.50;70.30;;;;;;5064853;28;20228;-68
2023/02/27 08:37:31;;;;;;;6.60;4.47;;;1.40;68.90;;;;;;5067197;28;20284;-68
2023/02/27 08:39:58;;;;;;;9.40;4.15;;;1.50;68.90;;;;;;5068318;28;20280;-68
2023/02/27 08:42:27;;;;;;;5.57;3.75;;;1.50;68.80;;;;;;5059686;28;20239;-68
2023/02/27 08:44:55;;;;;;;7.97;4.75;;;1.40;69.50;;;;;;5052090;28;20276;-68
2023/02/27 08:47:22;;;;;;;5.78;4.78;;;1.50;68.80;;;;;;5051745;28;20225;-69
2023/02/27 08:49:49;;;;;;;5.95;3.58;;;1.50;68.30;;;;;;5051654;28;20201;-69
2023/02/27 08:52:16;;;;;;;7.65;4.82;;;1.50;67.90;;;;;;5054626;28;20281;-69
2023/02/27 08:54:44;;;;;;;5.40;4.20;;;1.50;68.30;;;;;;5048673;28;20228;-68
2023/02/27 08:57:11;;;;;;;6.55;3.45;;;1.50;67.70;;;;;;5051948;28;20242;-69
2023/02/27 08:59:38;;;;;;;7.75;4.50;;;1.50;68.00;;;;;;5052867;28;20255;-69
2023/02/27 09:02:05;;;;;;;5.57;4.05;;;1.50;68.10;;;;;;5052655;28;20319;-69
2023/02/27 09:04:32;;;;;;;5.35;3.92;;;1.60;67.70;;;;;;5052852;28;20210;-69
2023/02/27 09:06:59;;;;;;;6.65;4.07;;;1.50;66.50;;;;;;5053067;28;20314;-69
2023/02/27 09:09:26;;;;;;;5.03;4.53;;;1.50;67.10;;;;;;5053635;28;20227;-68
2023/02/27 09:11:54;;;;;;;6.35;4.18;;;1.60;67.40;;;;;;5053073;28;20189;-70
2023/02/27 09:14:22;;;;;;;5.78;3.65;;;1.70;67.20;;;;;;5053865;28;20288;-69
2023/02/27 09:16:50;;;;;;;4.95;3.72;;;1.80;66.40;;;;;;5054015;28;20584;-69
2023/02/27 09:19:17;;;;;;;7.43;3.33;;;1.90;65.60;;;;;;5057355;28;20201;-69
2023/02/27 09:21:44;;;;;;;5.38;3.25;;;2.00;65.20;;;;;;5053115;28;20221;-70
2023/02/27 09:24:11;;;;;;;6.57;3.80;;;2.00;64.70;;;;;;5055917;28;20325;-69
2023/02/27 09:26:38;;;;;;;6.15;4.28;;;1.90;63.60;;;;;;5056872;28;20251;-69
2023/02/27 09:29:06;;;;;;;9.73;4.10;;;1.90;64.00;;;;;;5060203;28;20284;-68
2023/02/27 09:31:33;;;;;;;6.63;4.07;;;1.90;64.90;;;;;;5060567;28;20229;-68
2023/02/27 09:34:00;;;;;;;8.05;6.25;;;2.00;63.60;;;;;;5061735;28;20194;-69
2023/02/27 09:36:28;;;;;;;3.80;3.40;;;2.00;63.90;;;;;;5062142;28;20332;-69
2023/02/27 09:38:55;;;;;;;11.48;3.80;;;2.00;63.60;;;;;;5060237;28;20281;-68
2023/02/27 09:41:46;;;;;;;6.70;3.95;;;2.10;64.00;;;;;;5061046;28;20288;-69
2023/02/27 09:44:24;;;;;;;5.07;4.15;;;2.20;63.70;;;;;;5048221;28;20201;-69
2023/02/27 09:46:51;;;;;;;3.70;2.80;;;2.40;61.70;;;;;;5060861;28;20304;-68
2023/02/27 09:49:21;;;;;;;8.18;3.78;;;2.50;61.20;;;;;;5060993;28;20235;-68
2023/02/27 09:51:51;;;;;;;6.20;3.92;;;2.50;60.80;;;;;;5057459;28;20228;-69
2023/02/27 09:54:18;;;;;;;5.80;3.97;;;2.60;60.00;;;;;;5061671;28;20285;-68
2023/02/27 09:56:49;;;;;;;4.85;3.35;;;2.60;60.30;;;;;;5060894;28;20232;-69
2023/02/27 09:59:28;;;;;;;4.97;2.92;;;2.70;59.40;;;;;;5059180;28;20234;-68
2023/02/27 10:02:04;;;;;;;3.90;3.25;;;2.60;59.50;;;;;;5060509;28;20232;-69
2023/02/27 10:04:39;;;;;;;7.65;4.30;;;2.70;59.70;;;;;;5063286;28;20194;-68
2023/02/27 10:07:15;;;;;;;5.30;3.80;;;2.90;59.60;;;;;;5061177;28;20342;-68
2023/02/27 10:09:56;;;;;;;4.70;2.83;;;3.10;58.60;;;;;;5063189;28;20687;-68
2023/02/27 10:12:45;;;;;;;8.75;3.80;;;3.10;58.00;;;;;;5061978;28;20197;-68
2023/02/27 10:15:18;;;;;;;6.65;3.60;;;3.10;58.00;;;;;;5063499;28;20276;-68
2023/02/27 10:17:49;;;;;;;5.30;3.60;;;3.00;58.10;;;;;;5060356;28;20284;-68
2023/02/27 10:20:23;;;;;;;5.95;3.67;;;3.10;58.00;;;;;;5062435;28;20511;-69
2023/02/27 10:22:52;;;;;;;4.43;3.83;;;3.10;57.20;;;;;;5060952;28;20270;-69
2023/02/27 10:25:20;;;;;;;5.70;3.70;;;3.20;57.20;;;;;;5063769;28;20296;-69
2023/02/27 10:27:50;;;;;;;5.00;3.10;;;3.30;57.20;;;;;;5063779;28;20253;-70
2023/02/27 10:30:22;;;;;;;5.35;3.13;;;3.40;56.90;;;;;;5060496;28;20225;-69
2023/02/27 10:32:52;;;;;;;5.00;3.20;;;3.50;56.10;;;;;;5062402;28;20272;-68
2023/02/27 10:35:27;;;;;;;4.72;3.42;;;3.50;55.70;;;;;;5064565;28;20189;-68
2023/02/27 10:37:59;;;;;;;4.95;3.40;;;3.50;56.10;;;;;;5064106;28;20193;-68
2023/02/27 10:40:27;;;;;;;6.40;2.97;;;3.40;56.30;;;;;;5064324;28;20236;-68
2023/02/27 10:42:56;;;;;;;8.32;4.18;;;3.40;56.60;;;;;;5064643;28;20225;-68
2023/02/27 10:45:24;;;;;;;5.40;3.20;;;3.40;57.30;;;;;;5062649;28;20219;-68
2023/02/27 10:47:51;;;;;;;3.97;3.30;;;3.50;57.10;;;;;;5065532;28;20623;-69
2023/02/27 10:50:24;;;;;;;4.35;3.15;;;3.40;57.10;;;;;;5065311;28;20236;-69
2023/02/27 10:52:53;;;;;;;6.20;4.00;;;3.30;57.70;;;;;;5061347;28;20193;-69
2023/02/27 10:55:24;;;;;;;4.75;3.60;;;3.40;58.40;;;;;;5065496;28;20217;-68
2023/02/27 10:57:54;;;;;;;5.47;3.25;;;3.60;58.30;;;;;;5066232;28;20365;-69
2023/02/27 11:00:33;;;;;;;8.32;4.15;;;3.60;57.80;;;;;;5063491;28;20193;-69
2023/02/27 11:03:01;;;;;;;4.78;3.58;;;3.80;58.60;;;;;;5066105;28;20244;-69
2023/02/27 11:05:31;;;;;;;9.25;3.55;;;3.90;57.80;;;;;;5068218;28;20300;-68
2023/02/27 11:08:12;;;;;;;4.88;3.72;;;3.90;57.90;;;;;;5074148;28;20257;-69
2023/02/27 11:10:54;;;;;;;4.93;3.25;;;3.90;57.70;;;;;;5074259;28;20239;-69
2023/02/27 11:13:24;;;;;;;5.45;3.50;;;3.80;57.20;;;;;;5074214;28;20221;-68
2023/02/27 11:16:08;;;;;;;6.35;3.58;;;3.80;57.00;;;;;;5074325;28;20247;-69
2023/02/27 11:18:36;;;;;;;5.40;3.15;;;3.90;57.30;;;;;;5073967;28;20186;-68
2023/02/27 11:21:21;;;;;;;4.63;3.78;;;4.00;55.80;;;;;;5073753;28;20605;-69
2023/02/27 11:23:55;;;;;;;8.60;3.47;;;4.00;56.10;;;;;;5073744;28;20192;-68
2023/02/27 11:26:26;;;;;;;5.60;3.45;;;4.00;55.30;;;;;;5073871;28;20185;-68
2023/02/27 11:29:05;;;;;;;5.05;4.05;;;3.70;55.00;;;;;;5073770;28;20249;-68
2023/02/27 11:31:36;;;;;;;3.80;2.88;;;3.60;55.90;;;;;;5073841;28;20224;-68
2023/02/27 11:34:04;;;;;;;7.50;4.03;;;3.50;56.40;;;;;;5073243;28;20318;-69
2023/02/27 11:36:47;;;;;;;5.25;3.70;;;3.50;56.40;;;;;;5073528;28;20220;-68
2023/02/27 11:39:27;;;;;;;4.63;3.55;;;3.50;56.40;;;;;;5073632;28;20197;-69
2023/02/27 11:41:57;;;;;;;6.18;3.70;;;3.50;56.10;;;;;;5073468;28;20181;-68
2023/02/27 11:44:26;;;;;;;5.68;3.75;;;3.50;56.70;;;;;;5073469;28;20549;-68
2023/02/27 11:47:11;;;;;;;7.10;3.72;;;3.50;55.90;;;;;;5072376;28;20221;-68
2023/02/27 11:49:46;;;;;;;5.22;3.60;;;3.20;56.20;;;;;;5073484;28;20217;-70
2023/02/27 11:52:20;;;;;;;5.18;3.58;;;3.10;56.60;;;;;;5073611;28;20570;-68
2023/02/27 11:54:50;;;;;;;5.53;3.80;;;3.30;57.50;;;;;;5073514;28;20276;-68
2023/02/27 11:57:24;;;;;;;10.75;3.80;;;3.50;57.50;;;;;;5073479;28;20232;-68
2023/02/27 11:59:55;;;;;;;5.90;3.80;;;3.60;57.00;;;;;;5073235;28;20190;-68
2023/02/27 12:02:29;;;;;;;6.88;4.68;;;3.70;56.50;;;;;;5072960;28;20213;-68
2023/02/27 12:05:02;;;;;;;6.07;4.30;;;3.80;56.10;;;;;;5068049;28;20253;-69
2023/02/27 12:07:34;;;;;;;7.10;3.95;;;3.90;57.00;;;;;;5071508;28;20228;-69
2023/02/27 12:10:06;;;;;;;6.97;4.40;;;4.00;56.50;;;;;;5069678;28;20584;-68
2023/02/27 12:12:38;;;;;;;8.13;3.97;;;4.10;56.00;;;;;;5067291;28;20194;-69
2023/02/27 12:15:32;;;;;;;9.00;3.85;;;4.00;55.30;;;;;;5054269;28;20226;-68
2023/02/27 12:18:15;;;;;;;11.10;5.03;;;4.00;55.90;;;;;;5056700;28;20198;-68
2023/02/27 12:20:51;;;;;;;5.15;3.72;;;4.10;55.50;;;;;;5072365;28;20259;-69
2023/02/27 12:23:26;;;;;;;10.25;4.80;;;4.10;54.50;;;;;;5072584;28;20229;-68
2023/02/27 12:26:23;;;;;;;3.63;2.55;;;4.10;54.80;;;;;;5071584;28;20216;-69
2023/02/27 12:28:57;;;;;;;8.82;4.28;;;4.00;54.20;;;;;;5059699;28;20308;-69
2023/02/27 12:31:39;;;;;;;5.35;4.10;;;3.90;53.60;;;;;;5049493;28;20182;-69
2023/02/27 12:34:17;;;;;;;6.65;3.05;;;3.90;53.10;;;;;;5063598;28;20227;-68
2023/02/27 12:36:47;;;;;;;5.50;3.53;;;3.90;53.30;;;;;;5050942;28;20632;-68
2023/02/27 12:39:19;;;;;;;5.20;3.05;;;3.80;52.00;;;;;;5065345;28;20200;-68
2023/02/27 12:42:27;;;;;;;4.32;3.15;;;3.70;52.00;;;;;;5072092;28;20225;-68
2023/02/27 12:45:22;;;;;;;5.28;3.85;;;3.60;52.10;;;;;;5072605;28;20197;-68
2023/02/27 12:47:59;;;;;;;5.35;3.00;;;3.50;52.20;;;;;;5072623;28;20313;-68
2023/02/27 12:50:39;;;;;;;4.38;2.72;;;3.50;52.80;;;;;;5072574;28;20570;-68
2023/02/27 12:53:25;;;;;;;6.80;3.30;;;3.50;53.10;;;;;;5072237;28;20655;-68
2023/02/27 12:55:57;;;;;;;5.70;2.92;;;3.60;52.80;;;;;;5072364;28;20201;-68
2023/02/27 12:58:37;;;;;;;4.78;3.15;;;3.60;52.90;;;;;;5073613;28;20225;-69
2023/02/27 13:01:14;;;;;;;3.97;3.08;;;3.40;54.00;;;;;;5076494;28;20529;-68
2023/02/27 13:03:59;;;;;;;5.22;2.97;;;3.30;54.40;;;;;;5076677;28;20236;-68
2023/02/27 13:06:32;;;;;;;4.25;3.10;;;3.20;54.70;;;;;;5076385;28;20243;-69
2023/02/27 13:09:18;;;;;;;3.83;2.67;;;3.10;56.10;;;;;;5076329;28;20264;-68
2023/02/27 13:11:56;;;;;;;4.88;3.10;;;2.90;56.20;;;;;;5076588;28;20620;-69
2023/02/27 13:14:44;;;;;;;6.60;2.88;;;2.80;55.50;;;;;;5076243;28;20276;-69
2023/02/27 13:17:19;;;;;;;5.15;2.85;;;2.90;56.00;;;;;;5075993;28;20244;-69
2023/02/27 13:19:51;;;;;;;6.80;2.92;;;3.00;56.00;;;;;;5076272;28;20271;-69
2023/02/27 13:22:33;;;;;;;5.28;3.90;;;3.10;56.40;;;;;;5076282;28;20202;-69
2023/02/27 13:25:04;;;;;;;4.93;2.97;;;3.20;56.40;;;;;;5076298;28;20196;-69